createdAt,value
2019-06-20T00:01:59.822Z,19.10
2019-06-20T00:07:05.417Z,19.00
2019-06-20T00:12:11.046Z,19.00
2019-06-20T00:17:16.551Z,18.90
2019-06-20T00:22:21.980Z,18.90
2019-06-20T00:27:27.442Z,18.90
2019-06-20T00:32:33.009Z,18.80
2019-06-20T00:37:38.638Z,18.90
2019-06-20T00:42:44.102Z,18.90
2019-06-20T00:47:49.571Z,19.00
2019-06-20T00:52:55.177Z,18.90
2019-06-20T00:58:00.833Z,18.90
2019-06-20T01:03:06.298Z,18.90
2019-06-20T01:08:11.980Z,18.90
2019-06-20T01:13:32.493Z,18.90
2019-06-20T01:18:24.626Z,18.90
2019-06-20T01:23:30.107Z,18.80
2019-06-20T01:28:35.560Z,18.80
2019-06-20T01:33:41.189Z,18.80
2019-06-20T01:38:46.694Z,18.90
2019-06-20T01:43:52.242Z,18.90
2019-06-20T01:48:57.751Z,19.00
2019-06-20T01:54:03.447Z,19.00
2019-06-20T01:59:09.071Z,19.00
2019-06-20T02:04:14.662Z,18.80
2019-06-20T02:09:20.172Z,18.70
2019-06-20T02:14:25.607Z,18.60
2019-06-20T02:19:31.166Z,18.60
2019-06-20T02:24:36.603Z,18.60
2019-06-20T02:29:42.154Z,18.60
2019-06-20T02:34:47.795Z,18.50
2019-06-20T02:39:53.243Z,18.40
2019-06-20T02:44:58.693Z,18.30
2019-06-20T02:50:04.247Z,18.20
2019-06-20T02:55:09.886Z,18.30
2019-06-20T03:00:15.377Z,18.40
2019-06-20T03:05:20.861Z,18.60
2019-06-20T03:10:26.410Z,18.70
2019-06-20T03:15:31.881Z,18.80
2019-06-20T03:20:37.427Z,18.80
2019-06-20T03:25:42.935Z,18.90
2019-06-20T03:30:48.453Z,18.90
2019-06-20T03:35:53.980Z,19.00
2019-06-20T03:40:59.493Z,19.00
2019-06-20T03:46:04.974Z,19.00
2019-06-20T03:51:10.461Z,19.00
2019-06-20T03:56:17.585Z,19.00
2019-06-20T04:01:23.080Z,19.00
2019-06-20T04:06:28.540Z,19.10
2019-06-20T04:11:34.084Z,19.10
2019-06-20T04:16:39.588Z,19.10
2019-06-20T04:21:45.104Z,19.10
2019-06-20T04:26:50.653Z,19.10
2019-06-20T04:31:56.081Z,19.10
2019-06-20T04:37:01.552Z,19.20
2019-06-20T04:42:07.014Z,19.20
2019-06-20T04:47:13.188Z,19.30
2019-06-20T04:52:18.684Z,19.30
2019-06-20T04:57:24.130Z,19.40
2019-06-20T05:02:38.445Z,19.50
2019-06-20T05:07:44.014Z,19.60
2019-06-20T05:12:49.487Z,19.80
2019-06-20T05:17:54.985Z,20.20
2019-06-20T05:23:00.493Z,20.50
2019-06-20T05:28:05.939Z,20.70
2019-06-20T05:33:12.801Z,20.70
2019-06-20T05:38:18.295Z,20.70
2019-06-20T05:43:23.845Z,20.80
2019-06-20T05:48:29.291Z,20.90
2019-06-20T05:53:34.834Z,21.00
2019-06-20T05:58:40.438Z,21.20
2019-06-20T06:03:45.928Z,22.40
2019-06-20T06:08:51.933Z,23.90
2019-06-20T06:13:57.445Z,25.80
2019-06-20T06:19:03.159Z,27.40
2019-06-20T06:24:09.032Z,27.90
2019-06-20T06:29:16.433Z,29.10
2019-06-20T06:34:22.230Z,29.50
2019-06-20T06:39:27.975Z,29.10
2019-06-20T06:44:33.779Z,28.30
2019-06-20T06:49:39.796Z,27.50
2019-06-20T06:54:45.559Z,27.10
2019-06-20T06:59:51.339Z,27.10
2019-06-20T07:04:57.158Z,29.50
2019-06-20T07:10:03.063Z,35.10
2019-06-20T07:15:08.884Z,39.00
2019-06-20T07:20:15.464Z,38.10
2019-06-20T07:25:22.845Z,36.10
2019-06-20T07:30:28.659Z,34.50
2019-06-20T07:35:34.448Z,33.10
2019-06-20T07:40:40.295Z,33.20
2019-06-20T07:46:01.559Z,35.40
2019-06-20T07:50:53.616Z,37.80
2019-06-20T07:55:59.370Z,41.20
2019-06-20T08:01:05.145Z,41.80
2019-06-20T08:06:10.939Z,40.80
2019-06-20T08:11:16.772Z,43.50
2019-06-20T08:16:22.530Z,46.30
2019-06-20T08:21:28.571Z,45.40
2019-06-20T08:26:34.564Z,43.30
2019-06-20T08:31:40.322Z,41.40
2019-06-20T08:36:46.139Z,41.70
2019-06-20T08:41:51.925Z,42.30
2019-06-20T08:46:59.241Z,44.10
2019-06-20T08:52:05.594Z,43.30
2019-06-20T08:57:11.428Z,41.70
2019-06-20T09:02:17.193Z,40.20
2019-06-20T09:07:22.952Z,38.40
2019-06-20T09:12:28.804Z,36.30
2019-06-20T09:17:34.689Z,34.70
2019-06-20T09:22:40.531Z,34.50
2019-06-20T09:27:46.347Z,34.80
2019-06-20T09:32:52.819Z,34.30
2019-06-20T09:37:59.567Z,33.50
2019-06-20T09:43:05.631Z,33.70
2019-06-20T09:48:12.864Z,35.50
2019-06-20T09:53:18.689Z,39.50
2019-06-20T09:58:24.451Z,40.50
2019-06-20T10:03:30.219Z,39.80
2019-06-20T10:08:36.034Z,39.40
2019-06-20T10:13:41.792Z,38.90
2019-06-20T10:18:48.481Z,38.00
2019-06-20T10:23:54.254Z,37.30
2019-06-20T10:29:00.003Z,36.80
2019-06-20T10:34:05.921Z,36.30
2019-06-20T10:39:12.254Z,35.80
2019-06-20T10:44:17.998Z,35.20
2019-06-20T10:49:23.914Z,34.80
2019-06-20T10:54:29.762Z,34.80
2019-06-20T10:59:35.588Z,34.40
2019-06-20T11:04:42.404Z,34.00
2019-06-20T11:09:49.492Z,34.00
2019-06-20T11:14:55.290Z,33.60
2019-06-20T11:20:01.023Z,33.00
2019-06-20T11:25:07.358Z,32.60
2019-06-20T11:30:14.915Z,32.30
2019-06-20T11:35:20.820Z,31.80
2019-06-20T11:40:26.835Z,31.40
2019-06-20T11:45:32.531Z,31.40
2019-06-20T11:50:38.354Z,31.40
2019-06-20T11:55:44.425Z,31.30
2019-06-20T12:01:03.034Z,31.30
2019-06-20T12:05:57.762Z,31.40
2019-06-20T12:11:03.528Z,31.20
2019-06-20T12:16:09.289Z,31.20
2019-06-20T12:21:15.081Z,31.30
2019-06-20T12:26:20.941Z,31.40
2019-06-20T12:31:26.729Z,31.40
2019-06-20T12:36:32.481Z,31.10
2019-06-20T12:41:38.738Z,30.80
2019-06-20T12:46:46.974Z,30.60
2019-06-20T12:51:52.847Z,29.80
2019-06-20T12:56:58.571Z,29.00
2019-06-20T13:02:04.320Z,28.20
2019-06-20T13:07:10.175Z,27.40
2019-06-20T13:12:15.934Z,26.60
2019-06-20T13:17:21.401Z,25.90
2019-06-20T13:22:27.014Z,25.20
2019-06-20T13:27:32.522Z,24.50
2019-06-20T13:32:38.370Z,24.20
2019-06-20T13:37:45.645Z,24.30
2019-06-20T13:42:54.498Z,24.70
2019-06-20T13:47:58.927Z,25.30
2019-06-20T13:53:04.461Z,26.00
2019-06-20T13:58:10.190Z,26.40
2019-06-20T14:03:15.993Z,26.60
2019-06-20T14:08:21.486Z,26.30
2019-06-20T14:13:27.418Z,26.10
2019-06-20T14:18:33.242Z,26.20
2019-06-20T14:23:39.036Z,26.40
2019-06-20T14:28:46.013Z,26.50
2019-06-20T14:33:51.914Z,26.30
2019-06-20T14:38:57.649Z,26.00
2019-06-20T14:44:03.427Z,25.80
2019-06-20T14:49:08.979Z,25.70
2019-06-20T14:54:14.781Z,25.50
2019-06-20T14:59:20.251Z,25.20
2019-06-20T15:04:25.808Z,24.90
2019-06-20T15:09:31.400Z,24.50
2019-06-20T15:14:36.962Z,24.20
2019-06-20T15:19:42.425Z,24.20
2019-06-20T15:24:50.409Z,24.20
2019-06-20T15:29:56.302Z,24.30
2019-06-20T15:35:02.185Z,24.40
2019-06-20T15:40:07.860Z,24.50
2019-06-20T15:45:13.337Z,24.60
2019-06-20T15:50:18.896Z,24.90
2019-06-20T15:55:24.382Z,25.30
2019-06-20T16:00:29.913Z,25.60
2019-06-20T16:05:35.551Z,25.80
2019-06-20T16:10:41.367Z,25.90
2019-06-20T16:15:47.204Z,26.10
2019-06-20T16:20:52.935Z,26.30
2019-06-20T16:25:58.690Z,26.20
2019-06-20T16:31:10.149Z,26.00
2019-06-20T16:36:13.130Z,25.80
2019-06-20T16:41:19.130Z,25.60
2019-06-20T16:46:24.622Z,25.30
2019-06-20T16:51:30.107Z,25.10
2019-06-20T16:56:35.641Z,24.90
2019-06-20T17:01:41.109Z,24.70
2019-06-20T17:06:46.588Z,24.50
2019-06-20T17:11:52.180Z,24.40
2019-06-20T17:16:57.722Z,24.40
2019-06-20T17:22:03.291Z,24.10
2019-06-20T17:27:08.807Z,23.80
2019-06-20T17:32:14.300Z,23.60
2019-06-20T17:37:19.770Z,23.40
2019-06-20T17:42:25.217Z,23.20
2019-06-20T17:47:30.743Z,23.00
2019-06-20T17:52:36.304Z,22.70
2019-06-20T17:57:41.828Z,22.60
2019-06-20T18:02:47.390Z,22.50
2019-06-20T18:07:52.852Z,22.70
2019-06-20T18:12:58.532Z,22.80
2019-06-20T18:18:04.035Z,22.80
2019-06-20T18:23:09.496Z,22.90
2019-06-20T18:28:15.010Z,22.90
2019-06-20T18:33:20.454Z,22.80
2019-06-20T18:38:25.960Z,22.80
2019-06-20T18:43:31.467Z,22.80
2019-06-20T18:48:37.150Z,22.80
2019-06-20T18:53:42.731Z,22.70
2019-06-20T18:58:48.198Z,22.60
2019-06-20T19:03:53.767Z,22.40
2019-06-20T19:08:59.441Z,22.30
2019-06-20T19:14:05.029Z,22.00
2019-06-20T19:19:10.622Z,21.70
2019-06-20T19:24:16.227Z,21.60
2019-06-20T19:29:21.782Z,21.50
2019-06-20T19:34:27.325Z,21.40
2019-06-20T19:39:32.856Z,21.30
2019-06-20T19:44:38.352Z,21.20
2019-06-20T19:49:43.877Z,21.00
2019-06-20T19:54:49.363Z,20.70
2019-06-20T19:59:54.862Z,20.50
2019-06-20T20:05:00.412Z,20.30
2019-06-20T20:10:06.686Z,20.00
2019-06-20T20:15:12.304Z,19.70
2019-06-20T20:20:17.770Z,19.50
2019-06-20T20:25:23.410Z,19.20
2019-06-20T20:30:28.912Z,19.00
2019-06-20T20:35:35.843Z,18.90
2019-06-20T20:40:41.628Z,18.80
2019-06-20T20:45:47.142Z,18.70
2019-06-20T20:50:52.748Z,18.60
2019-06-20T20:55:58.272Z,18.40
2019-06-20T21:01:16.939Z,18.30
2019-06-20T21:06:22.411Z,18.20
2019-06-20T21:11:27.927Z,18.10
2019-06-20T21:16:33.578Z,18.00
2019-06-20T21:21:39.117Z,17.90
2019-06-20T21:26:49.634Z,17.70
2019-06-20T21:31:51.915Z,17.70
2019-06-20T21:36:57.447Z,17.60
2019-06-20T21:42:02.923Z,17.50
2019-06-20T21:47:08.409Z,17.40
2019-06-20T21:52:13.930Z,17.30
2019-06-20T21:57:19.476Z,17.40
2019-06-20T22:02:24.972Z,17.50
2019-06-20T22:07:30.613Z,17.50
2019-06-20T22:12:36.229Z,17.50
2019-06-20T22:17:41.724Z,17.50
2019-06-20T22:22:47.196Z,17.40
2019-06-20T22:27:52.656Z,17.40
2019-06-20T22:32:58.192Z,17.40
2019-06-20T22:38:03.755Z,17.50
2019-06-20T22:43:09.239Z,17.60
2019-06-20T22:48:14.821Z,17.70
2019-06-20T22:53:20.302Z,17.90
2019-06-20T22:58:25.905Z,18.00
2019-06-20T23:03:31.497Z,18.00
2019-06-20T23:08:36.930Z,18.00
2019-06-20T23:13:42.473Z,18.00
2019-06-20T23:18:48.021Z,18.00
2019-06-20T23:23:53.500Z,18.00
2019-06-20T23:29:16.432Z,17.90
2019-06-20T23:34:22.189Z,17.90
2019-06-20T23:39:28.493Z,18.00
2019-06-20T23:44:34.148Z,18.00
2019-06-20T23:49:39.756Z,18.10
2019-06-20T23:54:45.512Z,18.10
2019-06-20T23:59:50.966Z,18.20
